createdAt,value
2023-07-12T00:00:27.354Z,24.46
2023-07-12T00:02:53.921Z,24.46
2023-07-12T00:05:21.207Z,24.46
2023-07-12T00:07:47.945Z,24.45
2023-07-12T00:10:16.391Z,24.44
2023-07-12T00:12:43.207Z,24.44
2023-07-12T00:15:12.556Z,24.43
2023-07-12T00:17:39.223Z,24.43
2023-07-12T00:20:17.284Z,24.43
2023-07-12T00:22:43.711Z,24.41
2023-07-12T00:25:10.068Z,24.41
2023-07-12T00:27:36.576Z,24.39
2023-07-12T00:30:11.698Z,24.40
2023-07-12T00:32:38.215Z,24.39
2023-07-12T00:35:05.001Z,24.39
2023-07-12T00:37:31.768Z,24.39
2023-07-12T00:39:58.222Z,24.38
2023-07-12T00:42:38.404Z,24.37
2023-07-12T00:45:06.204Z,24.37
2023-07-12T00:47:33.363Z,24.35
2023-07-12T00:50:01.109Z,24.35
2023-07-12T00:52:27.806Z,24.34
2023-07-12T00:55:03.099Z,24.34
2023-07-12T00:57:32.556Z,24.34
2023-07-12T01:00:11.899Z,24.33
2023-07-12T01:02:41.791Z,24.32
2023-07-12T01:05:09.846Z,24.31
2023-07-12T01:07:36.583Z,24.31
2023-07-12T01:10:03.205Z,24.31
2023-07-12T01:12:29.730Z,24.29
2023-07-12T01:14:56.250Z,24.30
2023-07-12T01:17:24.523Z,24.29
2023-07-12T01:19:51.127Z,24.28
2023-07-12T01:22:17.656Z,24.27
2023-07-12T01:24:44.210Z,24.26
2023-07-12T01:27:18.001Z,24.26
2023-07-12T01:29:45.773Z,24.24
2023-07-12T01:32:12.738Z,24.24
2023-07-12T01:34:39.491Z,24.22
2023-07-12T01:37:06.262Z,24.22
2023-07-12T01:39:34.676Z,24.21
2023-07-12T01:42:02.152Z,24.21
2023-07-12T01:44:28.627Z,24.19
2023-07-12T01:46:55.931Z,24.18
2023-07-12T01:49:22.471Z,24.19
2023-07-12T01:51:49.693Z,24.17
2023-07-12T01:54:16.163Z,24.17
2023-07-12T01:56:42.601Z,24.16
2023-07-12T01:59:09.043Z,24.14
2023-07-12T02:01:35.611Z,24.14
2023-07-12T02:04:02.087Z,24.14
2023-07-12T02:06:28.588Z,24.13
2023-07-12T02:08:55.081Z,24.12
2023-07-12T02:11:21.497Z,24.11
2023-07-12T02:13:47.985Z,24.10
2023-07-12T02:16:14.593Z,24.10
2023-07-12T02:18:41.118Z,24.09
2023-07-12T02:21:08.320Z,24.08
2023-07-12T02:23:34.946Z,24.07
2023-07-12T02:26:01.385Z,24.06
2023-07-12T02:28:29.249Z,24.05
2023-07-12T02:30:55.729Z,24.04
2023-07-12T02:33:22.155Z,24.04
2023-07-12T02:35:50.975Z,24.03
2023-07-12T02:38:17.445Z,24.02
2023-07-12T02:40:43.962Z,24.01
2023-07-12T02:43:10.447Z,24.01
2023-07-12T02:45:36.940Z,24.00
2023-07-12T02:48:04.588Z,23.99
2023-07-12T02:50:31.106Z,23.98
2023-07-12T02:52:57.545Z,23.98
2023-07-12T02:55:24.034Z,23.97
2023-07-12T02:57:50.479Z,23.96
2023-07-12T03:00:19.297Z,23.96
2023-07-12T03:02:45.974Z,23.95
2023-07-12T03:05:12.504Z,23.94
2023-07-12T03:07:39.725Z,23.94
2023-07-12T03:10:06.523Z,23.93
2023-07-12T03:12:32.927Z,23.93
2023-07-12T03:14:59.399Z,23.92
2023-07-12T03:17:26.076Z,23.90
2023-07-12T03:19:52.640Z,23.90
2023-07-12T03:22:19.116Z,23.90
2023-07-12T03:24:45.667Z,23.89
2023-07-12T03:27:12.108Z,23.88
2023-07-12T03:29:38.513Z,23.88
2023-07-12T03:32:06.666Z,23.88
2023-07-12T03:34:33.391Z,23.58
2023-07-12T03:37:00.286Z,23.30
2023-07-12T03:39:27.960Z,23.07
2023-07-12T03:41:54.398Z,22.94
2023-07-12T03:44:20.856Z,22.84
2023-07-12T03:46:47.376Z,22.73
2023-07-12T03:49:14.385Z,22.62
2023-07-12T03:51:40.912Z,22.54
2023-07-12T03:54:07.313Z,22.41
2023-07-12T03:56:33.796Z,22.29
2023-07-12T03:59:00.373Z,22.20
2023-07-12T04:01:26.900Z,22.12
2023-07-12T04:03:53.470Z,22.08
2023-07-12T04:06:19.957Z,22.05
2023-07-12T04:08:46.466Z,22.25
2023-07-12T04:11:28.147Z,22.43
2023-07-12T04:13:55.405Z,22.56
2023-07-12T04:16:26.012Z,22.64
2023-07-12T04:18:53.844Z,22.70
2023-07-12T04:21:20.882Z,22.74
2023-07-12T04:23:51.923Z,22.78
2023-07-12T04:26:19.544Z,22.83
2023-07-12T04:28:50.175Z,22.86
2023-07-12T04:31:19.273Z,22.90
2023-07-12T04:33:47.239Z,22.93
2023-07-12T04:36:15.628Z,22.95
2023-07-12T04:38:42.094Z,22.99
2023-07-12T04:41:09.117Z,23.01
2023-07-12T04:43:35.836Z,23.04
2023-07-12T04:46:02.387Z,23.05
2023-07-12T04:48:31.471Z,23.07
2023-07-12T04:50:58.122Z,23.09
2023-07-12T04:53:24.683Z,23.10
2023-07-12T04:55:56.203Z,23.14
2023-07-12T04:58:22.796Z,23.15
2023-07-12T05:00:49.285Z,23.17
2023-07-12T05:03:18.567Z,23.18
2023-07-12T05:05:45.563Z,23.20
2023-07-12T05:08:12.305Z,23.20
2023-07-12T05:10:39.070Z,23.23
2023-07-12T05:13:05.848Z,23.25
2023-07-12T05:15:32.335Z,23.25
2023-07-12T05:17:59.107Z,23.26
2023-07-12T05:20:25.717Z,23.28
2023-07-12T05:22:52.178Z,23.29
2023-07-12T05:25:18.749Z,23.31
2023-07-12T05:27:45.299Z,23.31
2023-07-12T05:30:12.445Z,23.33
2023-07-12T05:32:39.543Z,23.34
2023-07-12T05:35:06.849Z,23.34
2023-07-12T05:37:34.324Z,23.35
2023-07-12T05:40:01.046Z,23.37
2023-07-12T05:42:27.602Z,23.40
2023-07-12T05:44:54.109Z,23.40
2023-07-12T05:47:20.713Z,23.41
2023-07-12T05:49:47.293Z,23.41
2023-07-12T05:54:40.051Z,23.45
2023-07-12T05:57:06.797Z,23.46
2023-07-12T05:59:33.363Z,23.47
2023-07-12T06:01:59.832Z,23.48
2023-07-12T06:04:26.286Z,23.49
2023-07-12T06:06:53.959Z,23.50
2023-07-12T06:09:20.598Z,23.53
2023-07-12T06:11:47.097Z,23.52
2023-07-12T06:14:13.541Z,23.53
2023-07-12T06:16:40.300Z,23.53
2023-07-12T06:19:06.948Z,23.54
2023-07-12T06:21:33.597Z,23.56
2023-07-12T06:24:00.733Z,23.57
2023-07-12T06:26:28.497Z,23.59
2023-07-12T06:28:55.384Z,23.60
2023-07-12T06:31:22.041Z,23.60
2023-07-12T06:33:48.557Z,23.59
2023-07-12T06:36:15.089Z,23.61
2023-07-12T06:38:41.633Z,23.61
2023-07-12T06:41:08.256Z,23.62
2023-07-12T06:43:35.030Z,23.62
2023-07-12T06:46:01.560Z,23.64
2023-07-12T06:48:28.223Z,23.64
2023-07-12T06:50:56.076Z,23.65
2023-07-12T06:53:22.589Z,23.64
2023-07-12T06:55:49.551Z,23.65
2023-07-12T06:58:16.057Z,23.64
2023-07-12T07:00:43.905Z,23.64
2023-07-12T07:03:11.731Z,23.65
2023-07-12T07:05:41.409Z,23.64
2023-07-12T07:08:09.580Z,23.65
2023-07-12T07:10:36.028Z,23.66
2023-07-12T07:13:02.541Z,23.67
2023-07-12T07:15:29.895Z,23.67
2023-07-12T07:17:58.095Z,23.69
2023-07-12T07:20:25.024Z,23.70
2023-07-12T07:22:51.505Z,23.72
2023-07-12T07:25:21.263Z,23.74
2023-07-12T07:27:48.260Z,23.75
2023-07-12T07:30:15.243Z,23.76
2023-07-12T07:32:41.817Z,23.76
2023-07-12T07:35:08.770Z,23.74
2023-07-12T07:37:35.275Z,23.75
2023-07-12T07:40:01.810Z,23.76
2023-07-12T07:42:28.332Z,23.77
2023-07-12T07:44:54.817Z,23.78
2023-07-12T07:47:22.485Z,23.77
2023-07-12T07:49:48.984Z,23.77
2023-07-12T07:52:15.566Z,23.78
2023-07-12T07:54:42.028Z,23.80
2023-07-12T07:57:08.871Z,23.82
2023-07-12T07:59:35.544Z,23.83
2023-07-12T08:02:02.490Z,23.85
2023-07-12T08:04:29.415Z,23.85
2023-07-12T08:06:57.380Z,23.85
2023-07-12T08:09:24.155Z,23.87
2023-07-12T08:11:50.728Z,23.88
2023-07-12T08:14:19.492Z,23.89
2023-07-12T08:16:46.221Z,23.90
2023-07-12T08:19:17.658Z,23.92
2023-07-12T08:21:45.672Z,23.92
2023-07-12T08:24:12.197Z,23.94
2023-07-12T08:26:39.290Z,23.95
2023-07-12T08:29:06.816Z,23.97
2023-07-12T08:31:34.287Z,23.97
2023-07-12T08:34:01.158Z,23.98
2023-07-12T08:36:27.655Z,24.00
2023-07-12T08:38:54.132Z,24.01
2023-07-12T08:41:27.195Z,24.03
2023-07-12T08:43:53.830Z,24.06
2023-07-12T08:46:23.767Z,24.05
2023-07-12T08:48:59.936Z,24.05
2023-07-12T08:51:31.574Z,24.08
2023-07-12T08:53:58.405Z,24.11
2023-07-12T08:56:26.138Z,24.13
2023-07-12T08:58:54.786Z,24.15
2023-07-12T09:01:45.890Z,24.17
2023-07-12T09:04:29.185Z,24.18
2023-07-12T09:06:58.804Z,24.19
2023-07-12T09:09:27.650Z,24.22
2023-07-12T09:11:54.692Z,24.23
2023-07-12T09:14:24.482Z,24.23
2023-07-12T09:16:57.835Z,24.23
2023-07-12T09:19:28.419Z,24.23
2023-07-12T09:21:57.514Z,24.23
2023-07-12T09:24:41.876Z,24.24
2023-07-12T09:27:19.785Z,24.24
2023-07-12T09:29:46.400Z,24.27
2023-07-12T09:32:21.130Z,24.27
2023-07-12T09:34:48.979Z,24.27
2023-07-12T09:37:21.281Z,24.27
2023-07-12T09:39:59.866Z,24.28
2023-07-12T09:42:28.885Z,24.30
2023-07-12T09:44:55.785Z,24.31
2023-07-12T09:47:35.316Z,24.31
2023-07-12T09:50:27.449Z,24.35
2023-07-12T09:53:10.848Z,24.35
2023-07-12T09:55:52.332Z,24.31
2023-07-12T09:58:29.385Z,24.31
2023-07-12T10:01:07.726Z,24.27
2023-07-12T10:03:42.509Z,24.27
2023-07-12T10:06:36.112Z,24.29
2023-07-12T10:09:16.428Z,24.35
2023-07-12T10:12:00.501Z,24.42
2023-07-12T10:14:34.055Z,24.48
2023-07-12T10:17:01.183Z,24.50
2023-07-12T10:19:34.060Z,24.46
2023-07-12T10:22:03.919Z,24.43
2023-07-12T10:24:37.295Z,24.42
2023-07-12T10:27:12.713Z,24.43
2023-07-12T10:30:11.335Z,24.46
2023-07-12T10:32:44.570Z,24.55
2023-07-12T10:35:20.817Z,24.63
2023-07-12T10:37:49.881Z,24.63
2023-07-12T10:40:24.281Z,24.61
2023-07-12T10:42:56.716Z,24.57
2023-07-12T10:45:30.568Z,24.55
2023-07-12T10:47:59.591Z,24.55
2023-07-12T10:50:46.325Z,24.53
2023-07-12T10:53:34.711Z,24.53
2023-07-12T10:56:16.520Z,24.54
2023-07-12T10:58:56.769Z,24.64
2023-07-12T11:01:42.200Z,24.67
2023-07-12T11:04:14.432Z,24.66
2023-07-12T11:07:02.967Z,24.61
2023-07-12T11:09:47.092Z,24.59
2023-07-12T11:12:32.184Z,24.57
2023-07-12T11:15:05.759Z,24.59
2023-07-12T11:18:04.483Z,24.70
2023-07-12T11:20:36.998Z,24.79
2023-07-12T11:23:06.677Z,24.84
2023-07-12T11:25:45.735Z,24.88
2023-07-12T11:28:21.465Z,24.90
2023-07-12T11:31:03.769Z,24.91
2023-07-12T11:33:33.654Z,24.89
2023-07-12T11:36:14.805Z,24.86
2023-07-12T11:38:44.492Z,24.92
2023-07-12T11:41:17.878Z,24.95
2023-07-12T11:43:44.572Z,24.92
2023-07-12T11:46:15.067Z,24.87
2023-07-12T11:48:45.018Z,24.91
2023-07-12T11:51:20.334Z,24.98
2023-07-12T11:53:58.147Z,24.97
2023-07-12T11:56:25.592Z,24.96
2023-07-12T11:58:52.348Z,24.93
2023-07-12T12:01:22.229Z,24.90
2023-07-12T12:03:50.869Z,24.94
2023-07-12T12:06:19.477Z,25.03
2023-07-12T12:08:51.990Z,25.06
2023-07-12T12:11:18.498Z,25.02
2023-07-12T12:13:52.334Z,25.00
2023-07-12T12:16:29.590Z,25.02
2023-07-12T12:19:09.033Z,25.06
2023-07-12T12:21:48.099Z,25.09
2023-07-12T12:24:20.406Z,25.13
2023-07-12T12:26:48.530Z,25.15
2023-07-12T12:29:20.630Z,25.22
2023-07-12T12:31:56.663Z,25.27
2023-07-12T12:34:28.339Z,25.33
2023-07-12T12:37:08.514Z,25.38
2023-07-12T12:39:35.835Z,25.39
2023-07-12T12:42:23.445Z,25.36
2023-07-12T12:44:52.309Z,25.35
2023-07-12T12:47:21.954Z,25.36
2023-07-12T12:53:14.492Z,25.48
2023-07-12T12:55:36.143Z,25.42
2023-07-12T12:58:25.385Z,25.39
2023-07-12T13:04:54.252Z,25.35
2023-07-12T13:06:20.888Z,25.41
2023-07-12T13:11:12.568Z,25.50
2023-07-12T13:21:34.671Z,25.56
2023-07-12T13:24:01.905Z,25.56
2023-07-12T13:26:28.717Z,25.52
2023-07-12T13:28:55.414Z,25.52
2023-07-12T13:31:22.878Z,25.59
2023-07-12T13:36:40.977Z,25.68
2023-07-12T13:46:43.873Z,25.77
2023-07-12T13:49:16.354Z,25.73
2023-07-12T13:51:43.198Z,25.67
2023-07-12T13:54:10.577Z,25.73
2023-07-12T14:04:23.372Z,25.84
2023-07-12T14:06:56.471Z,25.87
2023-07-12T14:09:24.524Z,25.89
2023-07-12T14:11:51.158Z,25.89
2023-07-12T14:14:17.664Z,25.88
2023-07-12T14:16:44.246Z,25.85
2023-07-12T14:19:10.840Z,25.89
2023-07-12T14:21:37.482Z,25.93
2023-07-12T14:24:04.385Z,25.94
2023-07-12T14:26:30.837Z,25.94
2023-07-12T14:29:00.512Z,25.95
2023-07-12T14:31:28.237Z,25.95
2023-07-12T14:33:55.119Z,25.97
2023-07-12T14:36:24.662Z,25.99
2023-07-12T14:38:51.619Z,25.96
2023-07-12T14:41:23.607Z,25.88
2023-07-12T14:43:50.052Z,25.85
2023-07-12T14:46:18.194Z,25.85
2023-07-12T14:48:46.020Z,25.87
2023-07-12T14:51:20.070Z,25.80
2023-07-12T14:53:53.083Z,25.81
2023-07-12T14:56:22.287Z,25.84
2023-07-12T14:58:49.146Z,25.91
2023-07-12T15:01:29.065Z,25.91
2023-07-12T15:03:59.545Z,25.91
2023-07-12T15:06:26.090Z,25.95
2023-07-12T15:08:53.570Z,25.95
2023-07-12T15:11:26.789Z,25.88
2023-07-12T15:13:53.459Z,25.87
2023-07-12T15:16:21.554Z,25.90
2023-07-12T15:18:49.421Z,25.92
2023-07-12T15:21:28.996Z,25.91
2023-07-12T15:23:57.611Z,25.90
2023-07-12T15:26:25.038Z,25.82
2023-07-12T15:28:52.266Z,25.81
2023-07-12T15:31:34.050Z,25.85
2023-07-12T15:34:01.846Z,25.88
2023-07-12T15:36:28.729Z,25.82
2023-07-12T15:38:55.573Z,25.83
2023-07-12T15:41:24.705Z,25.84
2023-07-12T15:43:56.266Z,25.78
2023-07-12T15:46:32.370Z,25.75
2023-07-12T15:48:59.640Z,25.67
2023-07-12T15:51:37.635Z,25.62
2023-07-12T15:54:19.014Z,25.61
2023-07-12T15:56:46.669Z,25.64
2023-07-12T15:59:17.616Z,25.65
2023-07-12T16:01:44.507Z,25.68
2023-07-12T16:04:19.064Z,25.70
2023-07-12T16:06:46.471Z,25.72
2023-07-12T16:09:13.348Z,25.80
2023-07-12T16:11:44.474Z,26.38
2023-07-12T16:14:23.294Z,27.09
2023-07-12T16:16:50.652Z,26.79
2023-07-12T16:19:19.311Z,26.47
2023-07-12T16:21:47.042Z,26.20
2023-07-12T16:24:14.616Z,26.01
2023-07-12T16:26:41.327Z,25.87
2023-07-12T16:29:09.397Z,25.78
2023-07-12T16:31:41.949Z,25.77
2023-07-12T16:34:16.504Z,25.74
2023-07-12T16:36:47.310Z,25.68
2023-07-12T16:39:14.375Z,25.61
2023-07-12T16:41:43.734Z,25.58
2023-07-12T16:44:15.819Z,25.54
2023-07-12T16:46:42.489Z,25.48
2023-07-12T16:49:11.148Z,25.42
2023-07-12T16:51:49.976Z,25.39
2023-07-12T16:54:16.454Z,25.35
2023-07-12T16:56:42.944Z,25.32
2023-07-12T16:59:09.545Z,25.30
2023-07-12T17:01:36.675Z,25.25
2023-07-12T17:04:06.236Z,25.22
2023-07-12T17:06:33.108Z,25.21
2023-07-12T17:08:59.656Z,25.17
2023-07-12T17:11:29.127Z,25.09
2023-07-12T17:13:55.795Z,25.04
2023-07-12T17:16:22.549Z,24.97
2023-07-12T17:18:49.291Z,24.90
2023-07-12T17:21:18.696Z,24.84
2023-07-12T17:23:46.185Z,24.84
2023-07-12T17:26:17.900Z,24.80
2023-07-12T17:28:46.168Z,24.76
2023-07-12T17:31:18.578Z,24.72
2023-07-12T17:33:46.018Z,24.66
2023-07-12T17:36:15.558Z,24.63
2023-07-12T17:38:43.201Z,24.63
2023-07-12T17:41:18.498Z,24.58
2023-07-12T17:43:45.337Z,24.55
2023-07-12T17:46:13.267Z,24.55
2023-07-12T17:48:40.851Z,24.53
2023-07-12T17:51:18.758Z,24.51
2023-07-12T17:53:45.347Z,24.48
2023-07-12T17:56:14.235Z,24.45
2023-07-12T17:58:41.972Z,24.39
2023-07-12T18:01:17.196Z,24.36
2023-07-12T18:03:46.514Z,24.33
2023-07-12T18:06:18.534Z,24.29
2023-07-12T18:08:46.263Z,24.27
2023-07-12T18:11:30.750Z,24.18
2023-07-12T18:13:59.957Z,24.16
2023-07-12T18:16:28.736Z,24.14
2023-07-12T18:18:55.433Z,24.12
2023-07-12T18:21:24.614Z,24.05
2023-07-12T18:23:51.995Z,24.04
2023-07-12T18:26:20.516Z,23.99
2023-07-12T18:28:47.881Z,23.93
2023-07-12T18:31:37.871Z,23.90
2023-07-12T18:34:07.220Z,23.89
2023-07-12T18:36:34.309Z,23.88
2023-07-12T18:39:05.923Z,23.82
2023-07-12T18:41:32.476Z,23.78
2023-07-12T18:43:59.008Z,23.73
2023-07-12T18:46:25.991Z,23.68
2023-07-12T18:48:52.913Z,23.65
2023-07-12T18:51:22.205Z,23.61
2023-07-12T18:53:48.864Z,23.60
2023-07-12T18:56:19.554Z,23.45
2023-07-12T18:58:46.745Z,23.35
2023-07-12T19:01:15.918Z,23.22
2023-07-12T19:03:43.227Z,23.10
2023-07-12T19:06:22.845Z,22.97
2023-07-12T19:08:49.458Z,22.90
2023-07-12T19:11:30.027Z,22.80
2023-07-12T19:13:56.983Z,22.77
2023-07-12T19:16:24.642Z,22.70
2023-07-12T19:18:51.851Z,22.61
2023-07-12T19:21:25.997Z,22.55
2023-07-12T19:23:54.564Z,22.50
2023-07-12T19:26:23.137Z,22.40
2023-07-12T19:28:51.067Z,22.34
2023-07-12T19:31:35.579Z,22.35
2023-07-12T19:34:02.095Z,22.33
2023-07-12T19:36:30.550Z,22.32
2023-07-12T19:38:58.673Z,22.25
2023-07-12T19:41:29.004Z,22.23
2023-07-12T19:43:55.786Z,22.27
2023-07-12T19:46:23.092Z,22.24
2023-07-12T19:48:49.877Z,22.20
2023-07-12T19:51:22.192Z,22.14
2023-07-12T19:53:54.895Z,22.15
2023-07-12T19:56:22.265Z,22.35
2023-07-12T19:58:53.608Z,22.52
2023-07-12T20:01:21.279Z,22.63
2023-07-12T20:03:48.931Z,22.72
2023-07-12T20:06:18.904Z,22.80
2023-07-12T20:08:46.405Z,22.87
2023-07-12T20:11:14.364Z,22.92
2023-07-12T20:13:42.084Z,22.97
2023-07-12T20:16:10.165Z,23.02
2023-07-12T20:18:37.595Z,23.06
2023-07-12T20:21:05.412Z,23.10
2023-07-12T20:23:32.647Z,23.13
2023-07-12T20:25:59.517Z,23.18
2023-07-12T20:28:30.688Z,23.22
2023-07-12T20:30:58.692Z,23.25
2023-07-12T20:33:27.587Z,23.30
2023-07-12T20:35:54.164Z,23.32
2023-07-12T20:38:20.954Z,23.36
2023-07-12T20:40:47.854Z,23.41
2023-07-12T20:45:41.531Z,23.46
2023-07-12T20:48:11.067Z,23.49
2023-07-12T20:50:37.824Z,23.51
2023-07-12T20:53:07.690Z,23.52
2023-07-12T20:55:34.911Z,23.55
2023-07-12T20:58:01.871Z,23.57
2023-07-12T21:00:47.278Z,23.59
2023-07-12T21:03:14.316Z,23.61
2023-07-12T21:05:41.034Z,23.62
2023-07-12T21:08:08.247Z,23.62
2023-07-12T21:10:34.728Z,23.62
2023-07-12T21:13:01.191Z,23.62
2023-07-12T21:15:27.757Z,23.62
2023-07-12T21:17:55.245Z,23.63
2023-07-12T21:20:21.753Z,23.64
2023-07-12T21:22:48.258Z,23.63
2023-07-12T21:25:15.012Z,23.64
2023-07-12T21:27:41.489Z,23.64
2023-07-12T21:30:09.495Z,23.66
2023-07-12T21:32:35.990Z,23.65
2023-07-12T21:35:03.166Z,23.64
2023-07-12T21:37:29.781Z,23.65
2023-07-12T21:39:56.266Z,23.65
2023-07-12T21:42:22.832Z,23.65
2023-07-12T21:44:50.887Z,23.65
2023-07-12T21:47:17.381Z,23.66
2023-07-12T21:49:43.947Z,23.66
2023-07-12T21:52:10.501Z,23.65
2023-07-12T21:54:37.100Z,23.65
2023-07-12T21:57:04.567Z,23.65
2023-07-12T21:59:31.114Z,23.65
2023-07-12T22:01:57.638Z,23.64
2023-07-12T22:04:24.306Z,23.65
2023-07-12T22:06:50.808Z,23.64
2023-07-12T22:09:17.310Z,23.63
2023-07-12T22:11:43.864Z,23.63
2023-07-12T22:14:10.503Z,23.63
2023-07-12T22:16:37.411Z,23.62
2023-07-12T22:19:04.848Z,23.62
2023-07-12T22:21:31.348Z,23.62
2023-07-12T22:23:57.869Z,23.61
2023-07-12T22:26:27.584Z,23.60
2023-07-12T22:28:54.803Z,23.60
2023-07-12T22:31:22.299Z,23.60
2023-07-12T22:33:49.310Z,23.59
2023-07-12T22:36:15.788Z,23.58
2023-07-12T22:38:42.370Z,23.58
2023-07-12T22:41:10.320Z,23.58
2023-07-12T22:43:36.836Z,23.57
2023-07-12T22:46:07.825Z,23.57
2023-07-12T22:48:37.553Z,23.55
2023-07-12T22:51:04.231Z,23.56
2023-07-12T22:53:31.628Z,23.55
2023-07-12T22:56:00.518Z,23.55
2023-07-12T22:58:28.369Z,23.54
2023-07-12T23:00:56.118Z,23.54
2023-07-12T23:03:23.255Z,23.53
2023-07-12T23:05:57.381Z,23.52
2023-07-12T23:08:26.526Z,23.53
2023-07-12T23:10:54.571Z,23.52
2023-07-12T23:13:27.118Z,23.51
2023-07-12T23:15:55.721Z,23.51
2023-07-12T23:18:25.444Z,23.51
2023-07-12T23:20:53.312Z,23.51
2023-07-12T23:23:20.755Z,23.50
2023-07-12T23:25:48.110Z,23.50
2023-07-12T23:28:15.569Z,23.50
2023-07-12T23:30:42.115Z,23.49
2023-07-12T23:33:09.180Z,23.49
2023-07-12T23:35:36.656Z,23.48
2023-07-12T23:38:03.780Z,23.47
2023-07-12T23:40:30.362Z,23.48
2023-07-12T23:42:57.320Z,23.47
2023-07-12T23:45:24.770Z,23.46
2023-07-12T23:47:52.045Z,23.45
2023-07-12T23:50:21.612Z,23.46
2023-07-12T23:52:50.172Z,23.46
2023-07-12T23:55:16.879Z,23.45
2023-07-12T23:57:43.510Z,23.45
